sensor_id;sensor_type;location;lat;lon;timestamp;P1;durP1;ratioP1;P2;durP2;ratioP2
14592;SDS011;7383;52.354;9.756;2023-02-28T00:00:53;3.72;;;3.42;;
14592;SDS011;7383;52.354;9.756;2023-02-28T00:03:19;4.10;;;3.42;;
14592;SDS011;7383;52.354;9.756;2023-02-28T00:05:46;4.32;;;3.97;;
14592;SDS011;7383;52.354;9.756;2023-02-28T00:08:12;4.15;;;3.75;;
14592;SDS011;7383;52.354;9.756;2023-02-28T00:10:40;3.85;;;3.55;;
14592;SDS011;7383;52.354;9.756;2023-02-28T00:13:07;3.92;;;3.63;;
14592;SDS011;7383;52.354;9.756;2023-02-28T00:15:34;4.13;;;3.72;;
14592;SDS011;7383;52.354;9.756;2023-02-28T00:18:01;3.78;;;3.47;;
14592;SDS011;7383;52.354;9.756;2023-02-28T00:20:28;3.90;;;3.42;;
14592;SDS011;7383;52.354;9.756;2023-02-28T00:22:57;3.78;;;3.47;;
14592;SDS011;7383;52.354;9.756;2023-02-28T00:25:25;4.03;;;3.72;;
14592;SDS011;7383;52.354;9.756;2023-02-28T00:27:53;4.45;;;3.92;;
14592;SDS011;7383;52.354;9.756;2023-02-28T00:30:20;3.83;;;3.50;;
14592;SDS011;7383;52.354;9.756;2023-02-28T00:32:50;4.15;;;3.80;;
14592;SDS011;7383;52.354;9.756;2023-02-28T00:35:17;3.97;;;3.67;;
14592;SDS011;7383;52.354;9.756;2023-02-28T00:37:44;4.32;;;3.83;;
14592;SDS011;7383;52.354;9.756;2023-02-28T00:40:10;3.90;;;3.60;;
14592;SDS011;7383;52.354;9.756;2023-02-28T00:42:38;4.57;;;4.00;;
14592;SDS011;7383;52.354;9.756;2023-02-28T00:45:06;3.75;;;3.30;;
14592;SDS011;7383;52.354;9.756;2023-02-28T00:47:34;3.60;;;3.30;;
14592;SDS011;7383;52.354;9.756;2023-02-28T00:50:00;3.45;;;3.15;;
14592;SDS011;7383;52.354;9.756;2023-02-28T00:52:27;3.72;;;3.42;;
14592;SDS011;7383;52.354;9.756;2023-02-28T00:54:53;4.22;;;3.50;;
14592;SDS011;7383;52.354;9.756;2023-02-28T00:57:20;4.43;;;3.40;;
14592;SDS011;7383;52.354;9.756;2023-02-28T00:59:46;4.07;;;3.70;;
14592;SDS011;7383;52.354;9.756;2023-02-28T01:02:14;3.85;;;3.50;;
14592;SDS011;7383;52.354;9.756;2023-02-28T01:04:40;3.72;;;3.42;;
14592;SDS011;7383;52.354;9.756;2023-02-28T01:07:08;3.63;;;3.22;;
14592;SDS011;7383;52.354;9.756;2023-02-28T01:09:35;4.18;;;3.78;;
14592;SDS011;7383;52.354;9.756;2023-02-28T01:12:01;4.10;;;3.75;;
14592;SDS011;7383;52.354;9.756;2023-02-28T01:14:28;3.90;;;3.60;;
14592;SDS011;7383;52.354;9.756;2023-02-28T01:16:54;4.65;;;4.20;;
14592;SDS011;7383;52.354;9.756;2023-02-28T01:19:22;4.10;;;3.70;;
14592;SDS011;7383;52.354;9.756;2023-02-28T01:21:49;3.92;;;3.58;;
14592;SDS011;7383;52.354;9.756;2023-02-28T01:24:15;4.50;;;4.10;;
14592;SDS011;7383;52.354;9.756;2023-02-28T01:26:42;4.20;;;3.80;;
14592;SDS011;7383;52.354;9.756;2023-02-28T01:29:08;4.18;;;3.78;;
14592;SDS011;7383;52.354;9.756;2023-02-28T01:31:35;3.95;;;3.65;;
14592;SDS011;7383;52.354;9.756;2023-02-28T01:34:02;3.97;;;3.65;;
14592;SDS011;7383;52.354;9.756;2023-02-28T01:36:30;3.92;;;3.60;;
14592;SDS011;7383;52.354;9.756;2023-02-28T01:38:56;4.38;;;3.95;;
14592;SDS011;7383;52.354;9.756;2023-02-28T01:41:24;5.22;;;4.28;;
14592;SDS011;7383;52.354;9.756;2023-02-28T01:43:54;4.40;;;3.85;;
14592;SDS011;7383;52.354;9.756;2023-02-28T01:46:23;4.78;;;4.05;;
14592;SDS011;7383;52.354;9.756;2023-02-28T01:48:51;4.07;;;3.78;;
14592;SDS011;7383;52.354;9.756;2023-02-28T01:51:21;4.13;;;3.55;;
14592;SDS011;7383;52.354;9.756;2023-02-28T01:53:53;4.03;;;3.63;;
14592;SDS011;7383;52.354;9.756;2023-02-28T01:56:23;3.63;;;3.33;;
14592;SDS011;7383;52.354;9.756;2023-02-28T01:58:54;3.95;;;3.65;;
14592;SDS011;7383;52.354;9.756;2023-02-28T02:01:21;3.70;;;3.40;;
14592;SDS011;7383;52.354;9.756;2023-02-28T02:03:49;4.18;;;3.88;;
14592;SDS011;7383;52.354;9.756;2023-02-28T02:06:22;3.92;;;3.53;;
14592;SDS011;7383;52.354;9.756;2023-02-28T02:08:52;5.10;;;3.67;;
14592;SDS011;7383;52.354;9.756;2023-02-28T02:11:19;3.72;;;3.42;;
14592;SDS011;7383;52.354;9.756;2023-02-28T02:13:52;3.85;;;3.55;;
14592;SDS011;7383;52.354;9.756;2023-02-28T02:16:35;5.03;;;4.05;;
14592;SDS011;7383;52.354;9.756;2023-02-28T02:19:15;3.92;;;3.58;;
14592;SDS011;7383;52.354;9.756;2023-02-28T02:22:14;3.97;;;3.58;;
14592;SDS011;7383;52.354;9.756;2023-02-28T02:25:13;3.70;;;3.38;;
14592;SDS011;7383;52.354;9.756;2023-02-28T02:34:13;3.90;;;3.50;;
14592;SDS011;7383;52.354;9.756;2023-02-28T02:36:53;4.03;;;3.63;;
14592;SDS011;7383;52.354;9.756;2023-02-28T02:39:27;3.83;;;3.53;;
14592;SDS011;7383;52.354;9.756;2023-02-28T02:42:01;3.85;;;3.53;;
14592;SDS011;7383;52.354;9.756;2023-02-28T02:44:39;3.47;;;3.17;;
14592;SDS011;7383;52.354;9.756;2023-02-28T02:47:11;3.83;;;3.53;;
14592;SDS011;7383;52.354;9.756;2023-02-28T02:49:43;3.67;;;3.38;;
14592;SDS011;7383;52.354;9.756;2023-02-28T02:52:14;3.50;;;3.20;;
14592;SDS011;7383;52.354;9.756;2023-02-28T02:54:46;4.10;;;3.80;;
14592;SDS011;7383;52.354;9.756;2023-02-28T02:57:19;3.38;;;3.03;;
14592;SDS011;7383;52.354;9.756;2023-02-28T02:59:49;3.55;;;3.20;;
14592;SDS011;7383;52.354;9.756;2023-02-28T03:02:18;3.80;;;3.50;;
14592;SDS011;7383;52.354;9.756;2023-02-28T03:04:50;4.45;;;3.55;;
14592;SDS011;7383;52.354;9.756;2023-02-28T03:07:19;4.05;;;3.75;;
14592;SDS011;7383;52.354;9.756;2023-02-28T03:09:50;4.85;;;3.50;;
14592;SDS011;7383;52.354;9.756;2023-02-28T03:12:18;4.55;;;3.50;;
14592;SDS011;7383;52.354;9.756;2023-02-28T03:14:51;3.60;;;3.30;;
14592;SDS011;7383;52.354;9.756;2023-02-28T03:17:31;3.67;;;3.38;;
14592;SDS011;7383;52.354;9.756;2023-02-28T03:20:15;3.83;;;3.42;;
14592;SDS011;7383;52.354;9.756;2023-02-28T03:22:51;3.75;;;3.38;;
14592;SDS011;7383;52.354;9.756;2023-02-28T03:25:27;3.83;;;3.35;;
14592;SDS011;7383;52.354;9.756;2023-02-28T03:28:02;3.78;;;3.45;;
14592;SDS011;7383;52.354;9.756;2023-02-28T03:30:39;3.90;;;3.60;;
14592;SDS011;7383;52.354;9.756;2023-02-28T03:33:12;3.80;;;3.40;;
14592;SDS011;7383;52.354;9.756;2023-02-28T03:35:45;3.85;;;3.45;;
14592;SDS011;7383;52.354;9.756;2023-02-28T03:38:17;3.55;;;3.25;;
14592;SDS011;7383;52.354;9.756;2023-02-28T03:40:48;3.28;;;2.97;;
14592;SDS011;7383;52.354;9.756;2023-02-28T03:43:22;3.17;;;2.90;;
14592;SDS011;7383;52.354;9.756;2023-02-28T03:45:53;3.55;;;3.25;;
14592;SDS011;7383;52.354;9.756;2023-02-28T03:48:23;3.88;;;3.55;;
14592;SDS011;7383;52.354;9.756;2023-02-28T03:50:57;3.70;;;3.40;;
14592;SDS011;7383;52.354;9.756;2023-02-28T03:53:27;4.00;;;3.45;;
14592;SDS011;7383;52.354;9.756;2023-02-28T03:55:58;4.28;;;3.90;;
14592;SDS011;7383;52.354;9.756;2023-02-28T03:58:28;3.78;;;3.45;;
14592;SDS011;7383;52.354;9.756;2023-02-28T04:01:03;3.70;;;3.40;;
14592;SDS011;7383;52.354;9.756;2023-02-28T04:03:34;4.38;;;3.63;;
14592;SDS011;7383;52.354;9.756;2023-02-28T04:06:03;3.92;;;3.53;;
14592;SDS011;7383;52.354;9.756;2023-02-28T04:08:31;4.07;;;3.67;;
14592;SDS011;7383;52.354;9.756;2023-02-28T04:10:59;4.10;;;3.70;;
14592;SDS011;7383;52.354;9.756;2023-02-28T04:13:29;4.15;;;3.58;;
14592;SDS011;7383;52.354;9.756;2023-02-28T04:15:55;3.90;;;3.50;;
14592;SDS011;7383;52.354;9.756;2023-02-28T04:18:22;3.65;;;3.35;;
14592;SDS011;7383;52.354;9.756;2023-02-28T04:20:48;4.00;;;3.70;;
14592;SDS011;7383;52.354;9.756;2023-02-28T04:23:16;3.80;;;3.50;;
14592;SDS011;7383;52.354;9.756;2023-02-28T04:25:43;3.70;;;3.40;;
14592;SDS011;7383;52.354;9.756;2023-02-28T04:28:09;3.35;;;3.05;;
14592;SDS011;7383;52.354;9.756;2023-02-28T04:30:37;3.53;;;3.17;;
14592;SDS011;7383;52.354;9.756;2023-02-28T04:33:04;3.90;;;3.60;;
14592;SDS011;7383;52.354;9.756;2023-02-28T04:35:30;4.38;;;3.95;;
14592;SDS011;7383;52.354;9.756;2023-02-28T04:37:56;3.95;;;3.65;;
14592;SDS011;7383;52.354;9.756;2023-02-28T04:40:24;3.70;;;3.40;;
14592;SDS011;7383;52.354;9.756;2023-02-28T04:42:50;3.92;;;3.53;;
14592;SDS011;7383;52.354;9.756;2023-02-28T04:45:17;3.70;;;3.40;;
14592;SDS011;7383;52.354;9.756;2023-02-28T04:47:43;4.45;;;4.05;;
14592;SDS011;7383;52.354;9.756;2023-02-28T04:50:10;3.95;;;3.65;;
14592;SDS011;7383;52.354;9.756;2023-02-28T04:52:36;3.50;;;3.20;;
14592;SDS011;7383;52.354;9.756;2023-02-28T04:55:03;3.95;;;3.63;;
14592;SDS011;7383;52.354;9.756;2023-02-28T04:57:32;3.85;;;3.55;;
14592;SDS011;7383;52.354;9.756;2023-02-28T04:59:58;3.22;;;3.03;;
14592;SDS011;7383;52.354;9.756;2023-02-28T05:02:25;3.22;;;3.00;;
14592;SDS011;7383;52.354;9.756;2023-02-28T05:04:51;3.53;;;3.30;;
14592;SDS011;7383;52.354;9.756;2023-02-28T05:07:17;4.63;;;3.60;;
14592;SDS011;7383;52.354;9.756;2023-02-28T05:09:44;3.53;;;3.22;;
14592;SDS011;7383;52.354;9.756;2023-02-28T05:12:10;3.63;;;3.33;;
14592;SDS011;7383;52.354;9.756;2023-02-28T05:14:38;3.53;;;3.22;;
14592;SDS011;7383;52.354;9.756;2023-02-28T05:17:04;3.63;;;3.28;;
14592;SDS011;7383;52.354;9.756;2023-02-28T05:19:31;3.88;;;3.53;;
14592;SDS011;7383;52.354;9.756;2023-02-28T05:21:57;4.20;;;3.90;;
14592;SDS011;7383;52.354;9.756;2023-02-28T05:24:23;3.72;;;3.42;;
14592;SDS011;7383;52.354;9.756;2023-02-28T05:26:51;4.47;;;3.88;;
14592;SDS011;7383;52.354;9.756;2023-02-28T05:29:19;4.45;;;3.78;;
14592;SDS011;7383;52.354;9.756;2023-02-28T05:31:46;4.55;;;4.15;;
14592;SDS011;7383;52.354;9.756;2023-02-28T05:34:13;4.25;;;3.92;;
14592;SDS011;7383;52.354;9.756;2023-02-28T05:36:40;4.95;;;4.00;;
14592;SDS011;7383;52.354;9.756;2023-02-28T05:39:07;4.45;;;3.95;;
14592;SDS011;7383;52.354;9.756;2023-02-28T05:41:37;4.65;;;4.20;;
14592;SDS011;7383;52.354;9.756;2023-02-28T05:44:05;4.20;;;3.83;;
14592;SDS011;7383;52.354;9.756;2023-02-28T05:46:31;4.35;;;4.00;;
14592;SDS011;7383;52.354;9.756;2023-02-28T05:48:59;4.53;;;4.13;;
14592;SDS011;7383;52.354;9.756;2023-02-28T05:51:26;4.13;;;3.78;;
14592;SDS011;7383;52.354;9.756;2023-02-28T05:53:52;4.90;;;4.28;;
14592;SDS011;7383;52.354;9.756;2023-02-28T05:56:19;4.70;;;4.18;;
14592;SDS011;7383;52.354;9.756;2023-02-28T05:58:45;4.40;;;4.00;;
14592;SDS011;7383;52.354;9.756;2023-02-28T06:01:22;4.97;;;3.95;;
14592;SDS011;7383;52.354;9.756;2023-02-28T06:03:50;4.55;;;4.15;;
14592;SDS011;7383;52.354;9.756;2023-02-28T06:06:18;4.65;;;4.28;;
14592;SDS011;7383;52.354;9.756;2023-02-28T06:08:45;4.78;;;4.32;;
14592;SDS011;7383;52.354;9.756;2023-02-28T06:11:11;4.70;;;4.20;;
14592;SDS011;7383;52.354;9.756;2023-02-28T06:13:38;4.53;;;4.07;;
14592;SDS011;7383;52.354;9.756;2023-02-28T06:16:05;4.35;;;4.05;;
14592;SDS011;7383;52.354;9.756;2023-02-28T06:18:32;4.60;;;4.20;;
14592;SDS011;7383;52.354;9.756;2023-02-28T06:20:58;4.45;;;4.05;;
14592;SDS011;7383;52.354;9.756;2023-02-28T06:23:26;4.47;;;4.05;;
14592;SDS011;7383;52.354;9.756;2023-02-28T06:25:52;4.18;;;3.78;;
14592;SDS011;7383;52.354;9.756;2023-02-28T06:28:22;3.88;;;3.58;;
14592;SDS011;7383;52.354;9.756;2023-02-28T06:30:49;4.00;;;3.67;;
14592;SDS011;7383;52.354;9.756;2023-02-28T06:33:15;5.43;;;3.85;;
14592;SDS011;7383;52.354;9.756;2023-02-28T06:35:43;3.75;;;3.55;;
14592;SDS011;7383;52.354;9.756;2023-02-28T06:38:10;4.15;;;3.75;;
14592;SDS011;7383;52.354;9.756;2023-02-28T06:40:38;4.90;;;4.50;;
14592;SDS011;7383;52.354;9.756;2023-02-28T06:43:04;5.13;;;3.78;;
14592;SDS011;7383;52.354;9.756;2023-02-28T06:45:31;4.78;;;4.28;;
14592;SDS011;7383;52.354;9.756;2023-02-28T06:47:57;3.97;;;3.67;;
14592;SDS011;7383;52.354;9.756;2023-02-28T06:50:25;4.30;;;4.00;;
14592;SDS011;7383;52.354;9.756;2023-02-28T06:52:53;4.15;;;3.85;;
14592;SDS011;7383;52.354;9.756;2023-02-28T06:55:20;3.97;;;3.55;;
14592;SDS011;7383;52.354;9.756;2023-02-28T06:57:48;4.13;;;3.72;;
14592;SDS011;7383;52.354;9.756;2023-02-28T07:00:15;4.38;;;3.95;;
14592;SDS011;7383;52.354;9.756;2023-02-28T07:02:42;4.40;;;4.07;;
14592;SDS011;7383;52.354;9.756;2023-02-28T07:05:09;4.10;;;3.80;;
14592;SDS011;7383;52.354;9.756;2023-02-28T07:07:35;4.10;;;3.80;;
14592;SDS011;7383;52.354;9.756;2023-02-28T07:10:03;4.47;;;4.07;;
14592;SDS011;7383;52.354;9.756;2023-02-28T07:12:30;4.53;;;4.13;;
14592;SDS011;7383;52.354;9.756;2023-02-28T07:14:58;4.43;;;4.03;;
14592;SDS011;7383;52.354;9.756;2023-02-28T07:17:24;4.50;;;4.10;;
14592;SDS011;7383;52.354;9.756;2023-02-28T07:19:51;5.82;;;4.50;;
14592;SDS011;7383;52.354;9.756;2023-02-28T07:22:17;5.45;;;4.57;;
14592;SDS011;7383;52.354;9.756;2023-02-28T07:24:44;5.45;;;4.95;;
14592;SDS011;7383;52.354;9.756;2023-02-28T07:27:10;4.60;;;4.25;;
14592;SDS011;7383;52.354;9.756;2023-02-28T07:29:37;5.63;;;5.13;;
14592;SDS011;7383;52.354;9.756;2023-02-28T07:32:05;5.10;;;4.70;;
14592;SDS011;7383;52.354;9.756;2023-02-28T07:34:31;4.68;;;4.38;;
14592;SDS011;7383;52.354;9.756;2023-02-28T07:36:58;4.70;;;4.30;;
14592;SDS011;7383;52.354;9.756;2023-02-28T07:39:28;4.70;;;4.30;;
14592;SDS011;7383;52.354;9.756;2023-02-28T07:41:55;6.65;;;4.93;;
14592;SDS011;7383;52.354;9.756;2023-02-28T07:44:22;4.97;;;4.50;;
14592;SDS011;7383;52.354;9.756;2023-02-28T07:46:50;5.18;;;4.40;;
14592;SDS011;7383;52.354;9.756;2023-02-28T07:49:19;4.25;;;3.90;;
14592;SDS011;7383;52.354;9.756;2023-02-28T07:51:45;4.57;;;4.18;;
14592;SDS011;7383;52.354;9.756;2023-02-28T07:54:12;4.50;;;4.10;;
14592;SDS011;7383;52.354;9.756;2023-02-28T07:56:39;4.35;;;3.88;;
14592;SDS011;7383;52.354;9.756;2023-02-28T07:59:05;4.15;;;3.75;;
14592;SDS011;7383;52.354;9.756;2023-02-28T08:01:32;4.28;;;3.88;;
14592;SDS011;7383;52.354;9.756;2023-02-28T08:04:00;4.10;;;3.70;;
14592;SDS011;7383;52.354;9.756;2023-02-28T08:06:31;4.32;;;3.92;;
14592;SDS011;7383;52.354;9.756;2023-02-28T08:08:57;3.83;;;3.53;;
14592;SDS011;7383;52.354;9.756;2023-02-28T08:11:24;4.10;;;3.70;;
14592;SDS011;7383;52.354;9.756;2023-02-28T08:13:50;3.85;;;3.42;;
14592;SDS011;7383;52.354;9.756;2023-02-28T08:16:20;4.22;;;3.65;;
14592;SDS011;7383;52.354;9.756;2023-02-28T08:18:48;4.05;;;3.65;;
14592;SDS011;7383;52.354;9.756;2023-02-28T08:21:16;3.90;;;3.45;;
14592;SDS011;7383;52.354;9.756;2023-02-28T08:23:46;4.03;;;3.72;;
14592;SDS011;7383;52.354;9.756;2023-02-28T08:26:13;3.70;;;3.25;;
14592;SDS011;7383;52.354;9.756;2023-02-28T08:28:40;3.80;;;3.50;;
14592;SDS011;7383;52.354;9.756;2023-02-28T08:31:53;4.00;;;3.33;;
14592;SDS011;7383;52.354;9.756;2023-02-28T08:34:06;3.10;;;2.90;;
14592;SDS011;7383;52.354;9.756;2023-02-28T08:36:32;3.30;;;3.00;;
14592;SDS011;7383;52.354;9.756;2023-02-28T08:39:04;3.42;;;3.13;;
14592;SDS011;7383;52.354;9.756;2023-02-28T08:41:36;4.28;;;3.33;;
14592;SDS011;7383;52.354;9.756;2023-02-28T08:44:03;3.30;;;3.00;;
14592;SDS011;7383;52.354;9.756;2023-02-28T08:46:32;3.38;;;3.08;;
14592;SDS011;7383;52.354;9.756;2023-02-28T08:48:59;3.50;;;2.92;;
14592;SDS011;7383;52.354;9.756;2023-02-28T08:51:40;3.63;;;3.38;;
14592;SDS011;7383;52.354;9.756;2023-02-28T08:54:09;3.38;;;2.78;;
14592;SDS011;7383;52.354;9.756;2023-02-28T08:56:37;3.75;;;2.67;;
14592;SDS011;7383;52.354;9.756;2023-02-28T08:59:05;2.88;;;2.60;;
14592;SDS011;7383;52.354;9.756;2023-02-28T09:01:32;2.97;;;2.70;;
14592;SDS011;7383;52.354;9.756;2023-02-28T09:04:00;3.00;;;2.70;;
14592;SDS011;7383;52.354;9.756;2023-02-28T09:06:27;3.00;;;2.70;;
14592;SDS011;7383;52.354;9.756;2023-02-28T09:08:56;2.97;;;2.70;;
14592;SDS011;7383;52.354;9.756;2023-02-28T09:11:25;3.75;;;3.08;;
14592;SDS011;7383;52.354;9.756;2023-02-28T09:13:54;2.80;;;2.60;;
14592;SDS011;7383;52.354;9.756;2023-02-28T09:16:28;2.60;;;2.40;;
14592;SDS011;7383;52.354;9.756;2023-02-28T09:19:06;2.30;;;2.10;;
14592;SDS011;7383;52.354;9.756;2023-02-28T09:21:39;2.45;;;2.22;;
14592;SDS011;7383;52.354;9.756;2023-02-28T09:24:18;2.88;;;2.47;;
14592;SDS011;7383;52.354;9.756;2023-02-28T09:29:55;2.90;;;2.63;;
14592;SDS011;7383;52.354;9.756;2023-02-28T09:32:35;2.60;;;2.40;;
14592;SDS011;7383;52.354;9.756;2023-02-28T09:35:02;2.60;;;2.40;;
14592;SDS011;7383;52.354;9.756;2023-02-28T09:40:20;2.55;;;2.30;;
14592;SDS011;7383;52.354;9.756;2023-02-28T09:42:50;2.80;;;2.53;;
14592;SDS011;7383;52.354;9.756;2023-02-28T09:45:24;3.28;;;2.40;;
14592;SDS011;7383;52.354;9.756;2023-02-28T09:47:56;3.05;;;2.75;;
14592;SDS011;7383;52.354;9.756;2023-02-28T09:50:30;2.60;;;2.40;;
14592;SDS011;7383;52.354;9.756;2023-02-28T09:52:59;1.98;;;1.88;;
14592;SDS011;7383;52.354;9.756;2023-02-28T09:55:30;2.10;;;2.00;;
14592;SDS011;7383;52.354;9.756;2023-02-28T09:58:03;2.20;;;2.00;;
14592;SDS011;7383;52.354;9.756;2023-02-28T10:00:33;2.25;;;2.10;;
14592;SDS011;7383;52.354;9.756;2023-02-28T10:03:04;2.22;;;2.03;;
14592;SDS011;7383;52.354;9.756;2023-02-28T10:05:43;3.00;;;2.40;;
14592;SDS011;7383;52.354;9.756;2023-02-28T10:08:18;2.20;;;2.00;;
14592;SDS011;7383;52.354;9.756;2023-02-28T10:10:50;2.97;;;2.53;;
14592;SDS011;7383;52.354;9.756;2023-02-28T10:13:21;2.55;;;2.35;;
14592;SDS011;7383;52.354;9.756;2023-02-28T10:15:54;2.50;;;2.30;;
14592;SDS011;7383;52.354;9.756;2023-02-28T10:18:25;3.20;;;2.50;;
14592;SDS011;7383;52.354;9.756;2023-02-28T10:20:56;2.53;;;2.00;;
14592;SDS011;7383;52.354;9.756;2023-02-28T10:23:23;2.13;;;1.70;;
14592;SDS011;7383;52.354;9.756;2023-02-28T10:25:55;1.55;;;1.45;;
14592;SDS011;7383;52.354;9.756;2023-02-28T10:28:24;1.80;;;1.65;;
14592;SDS011;7383;52.354;9.756;2023-02-28T10:30:55;1.92;;;1.77;;
14592;SDS011;7383;52.354;9.756;2023-02-28T10:33:25;1.55;;;1.45;;
14592;SDS011;7383;52.354;9.756;2023-02-28T10:35:55;2.28;;;1.63;;
14592;SDS011;7383;52.354;9.756;2023-02-28T10:38:22;1.60;;;1.50;;
14592;SDS011;7383;52.354;9.756;2023-02-28T10:40:50;1.85;;;1.70;;
14592;SDS011;7383;52.354;9.756;2023-02-28T10:43:21;1.85;;;1.75;;
14592;SDS011;7383;52.354;9.756;2023-02-28T10:45:55;1.85;;;1.70;;
14592;SDS011;7383;52.354;9.756;2023-02-28T10:48:27;2.00;;;1.80;;
14592;SDS011;7383;52.354;9.756;2023-02-28T10:50:56;1.90;;;1.65;;
14592;SDS011;7383;52.354;9.756;2023-02-28T10:53:30;2.03;;;1.60;;
14592;SDS011;7383;52.354;9.756;2023-02-28T10:55:59;1.20;;;1.20;;
14592;SDS011;7383;52.354;9.756;2023-02-28T10:58:29;1.08;;;1.08;;
14592;SDS011;7383;52.354;9.756;2023-02-28T11:00:59;1.30;;;1.20;;
14592;SDS011;7383;52.354;9.756;2023-02-28T11:03:30;1.40;;;1.30;;
14592;SDS011;7383;52.354;9.756;2023-02-28T11:05:58;1.20;;;1.10;;
14592;SDS011;7383;52.354;9.756;2023-02-28T11:08:30;1.05;;;1.02;;
14592;SDS011;7383;52.354;9.756;2023-02-28T11:10:57;1.42;;;1.00;;
14592;SDS011;7383;52.354;9.756;2023-02-28T11:13:28;0.80;;;0.80;;
14592;SDS011;7383;52.354;9.756;2023-02-28T11:16:00;1.25;;;0.98;;
14592;SDS011;7383;52.354;9.756;2023-02-28T11:18:30;1.27;;;1.17;;
14592;SDS011;7383;52.354;9.756;2023-02-28T11:21:04;1.00;;;1.00;;
14592;SDS011;7383;52.354;9.756;2023-02-28T11:23:32;1.52;;;1.27;;
14592;SDS011;7383;52.354;9.756;2023-02-28T11:26:02;1.00;;;1.00;;
14592;SDS011;7383;52.354;9.756;2023-02-28T11:28:35;1.55;;;1.15;;
14592;SDS011;7383;52.354;9.756;2023-02-28T11:31:06;1.20;;;1.20;;
14592;SDS011;7383;52.354;9.756;2023-02-28T11:33:42;1.23;;;1.13;;
14592;SDS011;7383;52.354;9.756;2023-02-28T11:36:14;1.20;;;1.10;;
14592;SDS011;7383;52.354;9.756;2023-02-28T11:38:44;1.10;;;0.88;;
14592;SDS011;7383;52.354;9.756;2023-02-28T11:41:18;1.38;;;1.00;;
14592;SDS011;7383;52.354;9.756;2023-02-28T11:44:04;1.45;;;1.00;;
14592;SDS011;7383;52.354;9.756;2023-02-28T11:46:44;1.10;;;1.10;;
14592;SDS011;7383;52.354;9.756;2023-02-28T11:49:18;1.10;;;1.00;;
14592;SDS011;7383;52.354;9.756;2023-02-28T11:51:56;0.93;;;0.93;;
14592;SDS011;7383;52.354;9.756;2023-02-28T11:54:32;1.00;;;1.00;;
14592;SDS011;7383;52.354;9.756;2023-02-28T12:03:19;1.60;;;1.27;;
14592;SDS011;7383;52.354;9.756;2023-02-28T12:14:46;1.30;;;1.20;;
14592;SDS011;7383;52.354;9.756;2023-02-28T12:17:28;1.30;;;1.20;;
14592;SDS011;7383;52.354;9.756;2023-02-28T12:20:44;1.42;;;1.33;;
14592;SDS011;7383;52.354;9.756;2023-02-28T12:43:16;1.23;;;1.23;;
14592;SDS011;7383;52.354;9.756;2023-02-28T12:48:46;1.38;;;1.35;;
14592;SDS011;7383;52.354;9.756;2023-02-28T12:51:16;1.27;;;1.17;;
14592;SDS011;7383;52.354;9.756;2023-02-28T12:53:48;1.60;;;1.50;;
14592;SDS011;7383;52.354;9.756;2023-02-28T12:59:23;1.40;;;1.40;;
14592;SDS011;7383;52.354;9.756;2023-02-28T12:59:41;1.60;;;1.50;;
14592;SDS011;7383;52.354;9.756;2023-02-28T13:54:24;1.77;;;1.67;;
14592;SDS011;7383;52.354;9.756;2023-02-28T13:57:03;1.73;;;1.63;;
14592;SDS011;7383;52.354;9.756;2023-02-28T13:59:46;2.10;;;1.88;;
14592;SDS011;7383;52.354;9.756;2023-02-28T14:02:48;1.80;;;1.70;;
14592;SDS011;7383;52.354;9.756;2023-02-28T14:09:18;1.58;;;1.48;;
14592;SDS011;7383;52.354;9.756;2023-02-28T14:18:58;1.42;;;1.38;;
14592;SDS011;7383;52.354;9.756;2023-02-28T14:24:50;1.70;;;1.60;;
14592;SDS011;7383;52.354;9.756;2023-02-28T14:27:34;1.50;;;1.40;;
14592;SDS011;7383;52.354;9.756;2023-02-28T14:30:56;1.50;;;1.45;;
14592;SDS011;7383;52.354;9.756;2023-02-28T14:34:02;1.42;;;1.40;;
14592;SDS011;7383;52.354;9.756;2023-02-28T14:36:57;1.58;;;1.48;;
14592;SDS011;7383;52.354;9.756;2023-02-28T14:39:27;1.65;;;1.55;;
14592;SDS011;7383;52.354;9.756;2023-02-28T14:41:56;1.50;;;1.40;;
14592;SDS011;7383;52.354;9.756;2023-02-28T14:44:29;1.70;;;1.60;;
14592;SDS011;7383;52.354;9.756;2023-02-28T14:46:57;1.40;;;1.40;;
14592;SDS011;7383;52.354;9.756;2023-02-28T14:49:47;1.70;;;1.60;;
14592;SDS011;7383;52.354;9.756;2023-02-28T14:52:17;1.88;;;1.77;;
14592;SDS011;7383;52.354;9.756;2023-02-28T14:54:47;2.20;;;1.65;;
14592;SDS011;7383;52.354;9.756;2023-02-28T14:57:20;1.75;;;1.65;;
14592;SDS011;7383;52.354;9.756;2023-02-28T14:59:56;1.60;;;1.50;;
14592;SDS011;7383;52.354;9.756;2023-02-28T15:02:33;1.88;;;1.77;;
14592;SDS011;7383;52.354;9.756;2023-02-28T15:05:20;1.67;;;1.58;;
14592;SDS011;7383;52.354;9.756;2023-02-28T15:08:00;1.83;;;1.73;;
14592;SDS011;7383;52.354;9.756;2023-02-28T15:10:30;1.80;;;1.70;;
14592;SDS011;7383;52.354;9.756;2023-02-28T15:12:57;1.75;;;1.60;;
14592;SDS011;7383;52.354;9.756;2023-02-28T15:15:27;1.80;;;1.70;;
14592;SDS011;7383;52.354;9.756;2023-02-28T15:18:03;1.80;;;1.70;;
14592;SDS011;7383;52.354;9.756;2023-02-28T15:20:32;1.63;;;1.52;;
14592;SDS011;7383;52.354;9.756;2023-02-28T15:22:59;1.95;;;1.85;;
14592;SDS011;7383;52.354;9.756;2023-02-28T15:25:26;1.80;;;1.70;;
14592;SDS011;7383;52.354;9.756;2023-02-28T15:27:53;1.80;;;1.70;;
14592;SDS011;7383;52.354;9.756;2023-02-28T15:30:23;1.70;;;1.60;;
14592;SDS011;7383;52.354;9.756;2023-02-28T15:33:17;1.70;;;1.60;;
14592;SDS011;7383;52.354;9.756;2023-02-28T15:35:45;1.80;;;1.70;;
14592;SDS011;7383;52.354;9.756;2023-02-28T15:38:14;1.77;;;1.67;;
14592;SDS011;7383;52.354;9.756;2023-02-28T15:40:43;1.98;;;1.88;;
14592;SDS011;7383;52.354;9.756;2023-02-28T15:43:18;1.80;;;1.70;;
14592;SDS011;7383;52.354;9.756;2023-02-28T15:45:51;1.70;;;1.60;;
14592;SDS011;7383;52.354;9.756;2023-02-28T15:48:31;1.70;;;1.60;;
14592;SDS011;7383;52.354;9.756;2023-02-28T15:51:02;1.75;;;1.65;;
14592;SDS011;7383;52.354;9.756;2023-02-28T15:53:33;1.60;;;1.50;;
14592;SDS011;7383;52.354;9.756;2023-02-28T15:56:04;1.73;;;1.63;;
14592;SDS011;7383;52.354;9.756;2023-02-28T15:58:32;1.80;;;1.70;;
14592;SDS011;7383;52.354;9.756;2023-02-28T16:01:04;1.80;;;1.70;;
14592;SDS011;7383;52.354;9.756;2023-02-28T16:03:40;1.85;;;1.75;;
14592;SDS011;7383;52.354;9.756;2023-02-28T16:06:26;1.90;;;1.80;;
14592;SDS011;7383;52.354;9.756;2023-02-28T16:09:03;1.70;;;1.60;;
14592;SDS011;7383;52.354;9.756;2023-02-28T16:11:33;2.20;;;1.75;;
14592;SDS011;7383;52.354;9.756;2023-02-28T16:14:00;1.83;;;1.73;;
14592;SDS011;7383;52.354;9.756;2023-02-28T16:16:28;1.77;;;1.67;;
14592;SDS011;7383;52.354;9.756;2023-02-28T16:18:56;1.70;;;1.58;;
14592;SDS011;7383;52.354;9.756;2023-02-28T16:21:23;1.70;;;1.60;;
14592;SDS011;7383;52.354;9.756;2023-02-28T16:23:56;1.60;;;1.50;;
14592;SDS011;7383;52.354;9.756;2023-02-28T16:26:25;1.55;;;1.50;;
14592;SDS011;7383;52.354;9.756;2023-02-28T16:28:59;1.67;;;1.58;;
14592;SDS011;7383;52.354;9.756;2023-02-28T16:31:26;1.50;;;1.40;;
14592;SDS011;7383;52.354;9.756;2023-02-28T16:33:53;1.80;;;1.70;;
14592;SDS011;7383;52.354;9.756;2023-02-28T16:36:21;1.75;;;1.60;;
14592;SDS011;7383;52.354;9.756;2023-02-28T16:39:01;1.73;;;1.63;;
14592;SDS011;7383;52.354;9.756;2023-02-28T16:41:28;1.80;;;1.70;;
14592;SDS011;7383;52.354;9.756;2023-02-28T16:43:57;1.73;;;1.63;;
14592;SDS011;7383;52.354;9.756;2023-02-28T16:46:27;2.10;;;1.90;;
14592;SDS011;7383;52.354;9.756;2023-02-28T16:48:57;1.80;;;1.70;;
14592;SDS011;7383;52.354;9.756;2023-02-28T16:51:25;2.15;;;1.95;;
14592;SDS011;7383;52.354;9.756;2023-02-28T16:53:53;1.80;;;1.70;;
14592;SDS011;7383;52.354;9.756;2023-02-28T16:56:31;1.70;;;1.60;;
14592;SDS011;7383;52.354;9.756;2023-02-28T16:59:02;2.10;;;1.90;;
14592;SDS011;7383;52.354;9.756;2023-02-28T17:01:50;1.65;;;1.55;;
14592;SDS011;7383;52.354;9.756;2023-02-28T17:04:22;1.85;;;1.70;;
14592;SDS011;7383;52.354;9.756;2023-02-28T17:06:53;2.00;;;1.90;;
14592;SDS011;7383;52.354;9.756;2023-02-28T17:09:22;1.70;;;1.60;;
14592;SDS011;7383;52.354;9.756;2023-02-28T17:11:51;1.85;;;1.75;;
14592;SDS011;7383;52.354;9.756;2023-02-28T17:14:18;1.92;;;1.83;;
14592;SDS011;7383;52.354;9.756;2023-02-28T17:16:46;1.90;;;1.80;;
14592;SDS011;7383;52.354;9.756;2023-02-28T17:19:13;1.90;;;1.80;;